Time;durP1;ratioP1;P1;durP2;ratioP2;P2;SDS_P1;SDS_P2;PMS_P1;PMS_P2;Temp;Humidity;BMP_temperature;BMP_pressure;BME280_temperature;BME280_humidity;BME280_pressure;Samples;Min_cycle;Max_cycle;Signal;HPM_P1;HPM_P2
2023/06/08 00:03:39;;;;;;;11.90;9.82;;;;;17.20;96285.00;;;;8275690;28;20230;-72
2023/06/08 00:07:45;;;;;;;11.63;9.25;;;;;17.30;96286.00;;;;8280665;28;20225;-73
2023/06/08 00:11:52;;;;;;;11.20;9.55;;;;;17.30;96279.00;;;;8286379;28;20285;-71
2023/06/08 00:15:55;;;;;;;16.60;9.80;;;;;17.30;96281.00;;;;8278791;28;20202;-73
2023/06/08 00:19:59;;;;;;;12.40;9.55;;;;;17.30;96282.00;;;;8278801;28;20289;-73
2023/06/08 00:24:04;;;;;;;12.27;10.00;;;;;17.30;96282.00;;;;8282376;28;20202;-73
2023/06/08 00:28:16;;;;;;;13.93;9.57;;;;;17.30;96271.00;;;;8276814;28;20233;-73
2023/06/08 00:32:24;;;;;;;10.90;9.75;;;;;17.30;96268.00;;;;8277677;28;20245;-72
2023/06/08 00:36:27;;;;;;;14.18;10.48;;;;;17.30;96275.00;;;;8270497;28;20734;-72
2023/06/08 00:40:39;;;;;;;14.82;10.05;;;;;17.20;96273.00;;;;8276019;28;20289;-72
2023/06/08 00:44:42;;;;;;;12.52;10.82;;;;;17.20;96270.00;;;;8284145;28;20226;-74
2023/06/08 00:48:47;;;;;;;12.88;10.43;;;;;17.20;96272.00;;;;8278145;28;20285;-73
2023/06/08 00:52:55;;;;;;;13.82;10.07;;;;;17.20;96265.00;;;;8279680;28;20556;-73
2023/06/08 00:57:05;;;;;;;12.32;9.75;;;;;17.20;96266.00;;;;8280193;28;20203;-71
2023/06/08 01:01:17;;;;;;;12.13;9.70;;;;;17.20;96263.00;;;;8278029;28;20198;-74
2023/06/08 01:05:22;;;;;;;13.02;9.68;;;;;17.10;96262.00;;;;8278148;28;20242;-72
2023/06/08 01:09:30;;;;;;;12.15;9.98;;;;;17.10;96254.00;;;;8277266;28;20194;-73
2023/06/08 01:13:57;;;;;;;15.60;10.98;;;;;17.00;96257.00;;;;8286873;28;20277;-72
2023/06/08 01:18:07;;;;;;;15.00;10.70;;;;;17.00;96260.00;;;;8273870;28;20674;-72
2023/06/08 01:22:20;;;;;;;13.35;10.50;;;;;16.90;96257.00;;;;8285333;28;20714;-73
2023/06/08 01:26:31;;;;;;;13.93;10.30;;;;;16.90;96252.00;;;;8275527;28;20222;-73
2023/06/08 01:30:39;;;;;;;13.05;10.95;;;;;16.80;96249.00;;;;8282819;28;20790;-73
2023/06/08 01:34:45;;;;;;;14.52;11.20;;;;;16.80;96248.00;;;;8271789;28;20286;-73
2023/06/08 01:39:04;;;;;;;15.23;11.55;;;;;16.70;96245.00;;;;8280481;28;20285;-73
2023/06/08 01:43:13;;;;;;;17.85;10.55;;;;;16.60;96239.00;;;;8281027;28;20198;-73
2023/06/08 01:47:17;;;;;;;17.65;11.85;;;;;16.60;96242.00;;;;8283333;28;20229;-73
2023/06/08 01:51:24;;;;;;;16.55;11.68;;;;;16.50;96243.00;;;;8277843;28;20285;-74
2023/06/08 01:55:30;;;;;;;13.23;11.50;;;;;16.40;96240.00;;;;8270898;28;20329;-74
2023/06/08 01:59:35;;;;;;;14.00;11.93;;;;;16.40;96242.00;;;;8262704;28;20628;-72
2023/06/08 02:03:40;;;;;;;16.13;11.73;;;;;16.40;96239.00;;;;8271918;28;20260;-73
2023/06/08 02:07:44;;;;;;;16.27;11.02;;;;;16.30;96243.00;;;;8273057;28;20265;-72
2023/06/08 02:11:49;;;;;;;13.77;11.73;;;;;16.30;96239.00;;;;8268108;28;20202;-71
2023/06/08 02:15:58;;;;;;;17.73;12.40;;;;;16.20;96233.00;;;;8279994;28;20288;-72
2023/06/08 02:20:06;;;;;;;15.18;12.20;;;;;16.20;96238.00;;;;8279509;28;20194;-71
2023/06/08 02:24:10;;;;;;;15.57;11.85;;;;;16.20;96237.00;;;;8288584;28;20723;-72
2023/06/08 02:28:15;;;;;;;19.63;13.07;;;;;16.10;96241.00;;;;8280654;28;20241;-73
2023/06/08 02:32:19;;;;;;;14.40;12.23;;;;;16.10;96232.00;;;;8273852;28;20300;-72
2023/06/08 02:36:31;;;;;;;16.90;11.68;;;;;16.20;96239.00;;;;8273830;28;20213;-72
2023/06/08 02:40:35;;;;;;;16.60;12.63;;;;;16.20;96243.00;;;;8260030;28;20231;-73
2023/06/08 02:44:41;;;;;;;16.33;12.52;;;;;16.30;96238.00;;;;8263057;28;20332;-74
2023/06/08 02:48:46;;;;;;;14.32;11.98;;;;;16.30;96248.00;;;;8281614;28;20660;-73
2023/06/08 02:52:49;;;;;;;15.68;12.18;;;;;16.30;96238.00;;;;8285070;28;20715;-73
2023/06/08 02:56:52;;;;;;;14.38;11.82;;;;;16.40;96240.00;;;;8279835;28;20711;-72
2023/06/08 03:01:14;;;;;;;14.07;11.48;;;;;16.40;96241.00;;;;8317890;23;20259;-73
2023/06/08 03:05:28;;;;;;;18.45;12.55;;;;;16.40;96244.00;;;;8361957;23;20232;-95
2023/06/08 03:09:34;;;;;;;15.52;12.13;;;;;16.50;96235.00;;;;8348711;28;20197;-96
2023/06/08 03:22:47;;;;;;;16.98;11.82;;;;;16.60;96230.00;;;;8352814;28;20229;-95
2023/06/08 03:26:53;;;;;;;14.57;11.65;;;;;16.60;96216.00;;;;8347764;28;20214;-95
2023/06/08 03:31:14;;;;;;;18.05;12.25;;;;;16.60;96223.00;;;;8358092;28;20197;-96
2023/06/08 03:40:06;;;;;;;16.90;12.05;;;;;16.60;96212.00;;;;8344929;28;20264;-95
2023/06/08 03:44:24;;;;;;;17.67;12.93;;;;;16.50;96214.00;;;;8351232;28;20273;-95
2023/06/08 03:48:40;;;;;;;13.88;12.18;;;;;16.50;96222.00;;;;8354675;28;20300;-96
2023/06/08 03:52:49;;;;;;;17.10;12.35;;;;;16.60;96229.00;;;;8356531;28;20239;-96
2023/06/08 03:57:03;;;;;;;15.68;12.20;;;;;16.50;96233.00;;;;8355759;28;20210;-96
2023/06/08 04:01:12;;;;;;;16.00;12.00;;;;;16.60;96232.00;;;;8354823;28;20189;-95
2023/06/08 04:05:19;;;;;;;17.75;11.95;;;;;16.70;96236.00;;;;8355430;28;20670;-96
2023/06/08 04:09:36;;;;;;;15.93;12.60;;;;;16.90;96227.00;;;;8372696;28;20233;-96
2023/06/08 04:13:46;;;;;;;14.13;12.05;;;;;17.10;96230.00;;;;8354712;28;20201;-94
2023/06/08 04:22:21;;;;;;;16.52;12.18;;;;;17.50;96240.00;;;;8321114;28;20194;-96
2023/06/08 04:26:42;;;;;;;16.80;12.02;;;;;17.80;96237.00;;;;8315266;28;20282;-96
2023/06/08 04:41:19;;;;;;;13.98;10.82;;;;;19.60;96248.00;;;;8336800;23;20324;-73
2023/06/08 04:45:23;;;;;;;18.95;12.10;;;;;19.90;96253.00;;;;8303003;28;20297;-72
2023/06/08 04:49:32;;;;;;;22.40;11.45;;;;;19.80;96251.00;;;;8303793;28;20752;-73
2023/06/08 04:53:37;;;;;;;12.10;10.73;;;;;19.70;96253.00;;;;8309605;28;20292;-74
2023/06/08 04:57:42;;;;;;;13.93;11.00;;;;;19.50;96250.00;;;;8308205;28;20713;-74
2023/06/08 05:01:48;;;;;;;12.48;10.60;;;;;19.50;96250.00;;;;8307134;28;20289;-74
2023/06/08 05:05:54;;;;;;;13.00;10.88;;;;;19.40;96249.00;;;;8276528;28;20489;-73
2023/06/08 05:10:00;;;;;;;12.38;10.38;;;;;19.40;96248.00;;;;8276533;28;20202;-73
2023/06/08 05:14:08;;;;;;;11.70;10.05;;;;;19.40;96247.00;;;;8275025;28;20209;-73
2023/06/08 05:18:11;;;;;;;12.75;10.30;;;;;19.40;96244.00;;;;8279233;28;20205;-74
2023/06/08 05:22:14;;;;;;;11.60;9.50;;;;;19.50;96241.00;;;;8286595;28;20209;-73
2023/06/08 05:26:22;;;;;;;12.40;10.00;;;;;19.60;96257.00;;;;8278227;28;20664;-72
2023/06/08 05:30:36;;;;;;;13.52;9.70;;;;;19.60;96248.00;;;;8272055;28;20230;-73
2023/06/08 05:34:39;;;;;;;15.38;10.50;;;;;19.50;96253.00;;;;8271799;28;20197;-73
2023/06/08 05:38:42;;;;;;;12.38;10.18;;;;;19.70;96251.00;;;;8282533;28;20233;-74
2023/06/08 05:42:45;;;;;;;16.02;9.73;;;;;19.90;96252.00;;;;8277946;28;20332;-75
2023/06/08 05:46:50;;;;;;;12.07;9.50;;;;;20.30;96269.00;;;;8272437;28;20650;-73
2023/06/08 05:50:54;;;;;;;13.93;8.82;;;;;20.70;96263.00;;;;8276806;28;20227;-73
2023/06/08 05:55:01;;;;;;;10.15;9.00;;;;;21.10;96265.00;;;;8274712;28;20202;-73
2023/06/08 05:59:04;;;;;;;13.10;9.38;;;;;21.50;96260.00;;;;8276310;28;20321;-74
2023/06/08 06:03:10;;;;;;;11.05;8.68;;;;;21.90;96269.00;;;;8275936;28;20304;-72
2023/06/08 06:07:13;;;;;;;10.25;8.95;;;;;22.40;96269.00;;;;8276093;28;20244;-73
2023/06/08 06:11:19;;;;;;;10.63;8.45;;;;;22.70;96269.00;;;;8270451;28;20238;-73
2023/06/08 06:15:25;;;;;;;9.38;8.38;;;;;23.00;96273.00;;;;8281179;28;20256;-73
2023/06/08 06:19:35;;;;;;;9.70;8.10;;;;;23.20;96271.00;;;;8284179;28;20198;-73
2023/06/08 06:23:40;;;;;;;10.77;8.30;;;;;23.30;96270.00;;;;8282094;28;20209;-74
2023/06/08 06:27:43;;;;;;;8.98;8.13;;;;;23.80;96272.00;;;;8280640;28;20219;-74
2023/06/08 06:31:52;;;;;;;10.52;8.30;;;;;24.40;96265.00;;;;8279505;28;20254;-71
2023/06/08 06:35:57;;;;;;;10.15;8.63;;;;;24.50;96251.00;;;;8284494;28;20202;-74
2023/06/08 06:40:06;;;;;;;12.32;8.35;;;;;24.80;96260.00;;;;8279338;28;20680;-70
2023/06/08 06:44:13;;;;;;;9.23;7.63;;;;;25.10;96258.00;;;;8273752;28;20205;-73
2023/06/08 06:48:17;;;;;;;12.18;7.60;;;;;25.60;96262.00;;;;8273897;28;20789;-72
2023/06/08 06:52:22;;;;;;;14.13;7.60;;;;;26.30;96265.00;;;;8273967;28;20225;-73
2023/06/08 06:56:25;;;;;;;13.05;7.72;;;;;27.00;96268.00;;;;8277423;28;20240;-72
2023/06/08 07:00:32;;;;;;;10.82;7.18;;;;;27.40;96274.00;;;;8268233;28;20201;-72
2023/06/08 07:04:35;;;;;;;11.43;6.88;;;;;27.90;96272.00;;;;8278840;28;20718;-72
2023/06/08 07:08:41;;;;;;;12.00;7.07;;;;;28.30;96273.00;;;;8268339;28;20275;-72
2023/06/08 07:12:45;;;;;;;9.25;7.55;;;;;28.40;96271.00;;;;8272975;28;20211;-72
2023/06/08 07:16:50;;;;;;;7.55;6.75;;;;;28.70;96271.00;;;;8276174;28;20261;-73
2023/06/08 07:20:53;;;;;;;8.15;7.03;;;;;28.70;96272.00;;;;8273703;28;20207;-72
2023/06/08 07:24:59;;;;;;;8.18;7.18;;;;;28.80;96271.00;;;;8276061;28;20688;-71
2023/06/08 07:29:22;;;;;;;10.73;5.95;;;;;29.00;96271.00;;;;8276983;28;20271;-71
2023/06/08 07:33:26;;;;;;;6.35;5.38;;;;;29.40;96268.00;;;;8282584;28;20256;-72
2023/06/08 07:37:30;;;;;;;10.75;5.93;;;;;29.90;96275.00;;;;8277834;28;20297;-72
2023/06/08 07:41:34;;;;;;;9.40;5.53;;;;;30.20;96267.00;;;;8278906;28;20321;-72
2023/06/08 07:45:37;;;;;;;6.10;5.50;;;;;30.30;96275.00;;;;8274889;28;20216;-71
2023/06/08 07:49:50;;;;;;;6.05;5.55;;;;;29.80;96270.00;;;;8276865;28;20316;-72
2023/06/08 07:53:56;;;;;;;7.47;5.57;;;;;29.80;96280.00;;;;8276279;28;20225;-72
2023/06/08 07:58:01;;;;;;;5.93;5.18;;;;;30.30;96283.00;;;;8272957;28;20265;-71
2023/06/08 08:02:08;;;;;;;10.15;4.82;;;;;30.90;96279.00;;;;8278279;28;20252;-73
2023/06/08 08:06:11;;;;;;;6.95;5.32;;;;;30.60;96282.00;;;;8286072;28;20280;-72
2023/06/08 08:10:19;;;;;;;6.28;5.78;;;;;30.60;96284.00;;;;8285850;28;20319;-72
2023/06/08 08:14:26;;;;;;;6.15;5.55;;;;;30.10;96286.00;;;;8275719;28;20282;-72
2023/06/08 08:18:32;;;;;;;5.57;5.00;;;;;29.70;96282.00;;;;8276492;28;20205;-72
2023/06/08 08:22:36;;;;;;;6.80;5.88;;;;;29.30;96279.00;;;;8273444;28;20198;-72
2023/06/08 08:26:41;;;;;;;7.53;6.82;;;;;28.70;96278.00;;;;8274840;28;20245;-71
2023/06/08 08:30:51;;;;;;;8.07;7.20;;;;;29.40;96277.00;;;;8278842;28;20234;-73
2023/06/08 08:34:55;;;;;;;7.10;6.00;;;;;29.60;96270.00;;;;8283455;28;20202;-73
2023/06/08 08:38:59;;;;;;;9.30;6.68;;;;;29.80;96269.00;;;;8280507;28;20292;-73
2023/06/08 08:43:10;;;;;;;7.88;6.47;;;;;29.90;96258.00;;;;8277748;28;20563;-73
2023/06/08 08:47:15;;;;;;;6.75;5.80;;;;;30.30;96266.00;;;;8277868;28;20218;-72
2023/06/08 08:51:21;;;;;;;10.23;6.32;;;;;30.40;96270.00;;;;8280759;28;20244;-70
2023/06/08 08:55:33;;;;;;;5.40;4.90;;;;;31.60;96272.00;;;;8277363;28;20254;-72
2023/06/08 08:59:40;;;;;;;7.28;6.57;;;;;31.50;96267.00;;;;8280727;28;20206;-72
2023/06/08 09:03:47;;;;;;;5.57;5.03;;;;;31.50;96264.00;;;;8282025;28;20221;-75
2023/06/08 09:07:58;;;;;;;7.00;5.10;;;;;32.60;96260.00;;;;8280731;28;20276;-77
2023/06/08 09:12:04;;;;;;;7.25;5.75;;;;;33.40;96262.00;;;;8280320;28;20217;-76
2023/06/08 09:16:10;;;;;;;6.38;5.47;;;;;32.90;96253.00;;;;8277338;28;20207;-76
2023/06/08 09:20:26;;;;;;;5.63;5.20;;;;;33.40;96254.00;;;;8283426;28;20202;-76
2023/06/08 09:24:33;;;;;;;6.88;5.78;;;;;32.50;96248.00;;;;8273175;28;20214;-77
2023/06/08 09:28:37;;;;;;;9.55;5.80;;;;;32.70;96242.00;;;;8270084;28;20313;-76
2023/06/08 09:32:41;;;;;;;5.78;5.38;;;;;33.40;96245.00;;;;8275372;28;20249;-76
2023/06/08 09:36:48;;;;;;;5.95;4.85;;;;;33.30;96232.00;;;;8273029;28;20245;-78
2023/06/08 09:40:54;;;;;;;7.95;4.90;;;;;33.90;96236.00;;;;8277342;28;20238;-76
2023/06/08 09:45:09;;;;;;;6.22;5.07;;;;;35.00;96235.00;;;;8279144;28;20218;-76
2023/06/08 09:49:18;;;;;;;7.90;5.15;;;;;35.10;96222.00;;;;8278210;28;20289;-76
2023/06/08 09:53:25;;;;;;;5.10;4.72;;;;;34.80;96229.00;;;;8274519;28;20210;-74
2023/06/08 09:57:33;;;;;;;5.53;5.03;;;;;34.90;96219.00;;;;8274040;28;20202;-77
2023/06/08 10:01:41;;;;;;;7.43;5.50;;;;;34.80;96230.00;;;;8283547;28;20194;-77
2023/06/08 10:05:47;;;;;;;6.97;5.30;;;;;34.40;96218.00;;;;8270341;28;20230;-76
2023/06/08 10:09:59;;;;;;;5.47;4.97;;;;;34.10;96219.00;;;;8270784;28;20314;-79
2023/06/08 10:14:03;;;;;;;7.80;5.43;;;;;33.10;96219.00;;;;8279879;28;20202;-75
2023/06/08 10:18:07;;;;;;;6.00;5.40;;;;;33.50;96211.00;;;;8275035;28;20238;-76
2023/06/08 10:22:11;;;;;;;5.07;4.68;;;;;33.80;96206.00;;;;8277361;28;20198;-76
2023/06/08 10:26:20;;;;;;;7.22;5.43;;;;;33.90;96202.00;;;;8275751;28;20340;-76
2023/06/08 10:30:33;;;;;;;5.68;5.07;;;;;34.70;96200.00;;;;8268387;28;21035;-76
2023/06/08 10:34:40;;;;;;;5.82;5.22;;;;;35.20;96199.00;;;;8291036;28;20213;-73
2023/06/08 10:38:55;;;;;;;7.95;6.47;;;;;35.10;96192.00;;;;8277908;28;20190;-75
2023/06/08 10:43:10;;;;;;;5.75;4.68;;;;;33.80;96196.00;;;;8265791;28;20207;-71
2023/06/08 10:47:43;;;;;;;5.40;4.90;;;;;33.00;96177.00;;;;8268302;28;20198;-74
2023/06/08 10:51:57;;;;;;;4.93;4.53;;;;;34.30;96180.00;;;;8268500;28;20280;-73
2023/06/08 10:56:01;;;;;;;5.20;4.80;;;;;33.60;96171.00;;;;8262248;28;20203;-74
2023/06/08 11:00:48;;;;;;;5.35;4.85;;;;;31.90;96165.00;;;;8281078;28;20186;-73
2023/06/08 11:04:53;;;;;;;6.70;4.75;;;;;30.80;96165.00;;;;8287175;28;20587;-73
2023/06/08 11:09:03;;;;;;;5.60;4.95;;;;;30.20;96160.00;;;;8282010;28;20225;-74
2023/06/08 11:13:07;;;;;;;6.05;4.60;;;;;30.00;96153.00;;;;8276878;28;20265;-74
2023/06/08 11:17:17;;;;;;;5.43;4.55;;;;;30.60;96156.00;;;;8280016;28;20205;-73
2023/06/08 11:21:24;;;;;;;6.07;4.25;;;;;32.10;96142.00;;;;8278566;28;20205;-76
2023/06/08 11:25:29;;;;;;;5.55;4.90;;;;;33.80;96146.00;;;;8271419;28;20202;-76
2023/06/08 11:29:35;;;;;;;5.90;5.13;;;;;34.70;96146.00;;;;8284280;28;20238;-76
2023/06/08 11:33:52;;;;;;;4.63;4.22;;;;;35.20;96143.00;;;;8274150;28;20289;-75
2023/06/08 11:37:59;;;;;;;11.02;4.57;;;;;35.20;96135.00;;;;8271105;28;20227;-76
2023/06/08 11:42:02;;;;;;;4.28;3.95;;;;;34.10;96145.00;;;;8274925;28;20638;-76
2023/06/08 11:46:08;;;;;;;4.47;4.18;;;;;33.30;96141.00;;;;8273609;28;20285;-78
2023/06/08 11:50:16;;;;;;;5.75;4.15;;;;;33.80;96137.00;;;;8270122;28;20234;-78
2023/06/08 11:54:21;;;;;;;4.55;4.15;;;;;34.90;96133.00;;;;8274329;28;20225;-77
2023/06/08 11:58:28;;;;;;;4.13;3.83;;;;;36.50;96143.00;;;;8274086;28;20198;-75
2023/06/08 12:02:36;;;;;;;3.75;3.50;;;;;34.80;96145.00;;;;8279031;28;20648;-73
2023/06/08 12:06:45;;;;;;;8.05;5.00;;;;;32.40;96149.00;;;;8276849;28;20690;-75
2023/06/08 12:10:48;;;;;;;5.20;4.72;;;;;30.20;96163.00;;;;8280836;28;20320;-73
2023/06/08 12:14:55;;;;;;;8.10;4.80;;;;;28.00;96178.00;;;;8282783;28;20873;-71
2023/06/08 12:18:58;;;;;;;6.38;4.93;;;;;25.70;96170.00;;;;8276389;28;20241;-72
2023/06/08 12:23:03;;;;;;;9.32;5.05;;;;;24.20;96159.00;;;;8280172;28;20198;-74
2023/06/08 12:27:09;;;;;;;9.80;6.80;;;;;23.20;96169.00;;;;8276428;28;20811;-74
2023/06/08 12:31:12;;;;;;;18.92;6.63;;;;;22.20;96190.00;;;;8273454;28;20742;-72
2023/06/08 12:35:17;;;;;;;24.30;6.30;;;;;20.60;96197.00;;;;8270362;28;20203;-68
2023/06/08 12:39:27;;;;;;;15.13;6.95;;;;;19.50;96200.00;;;;8276773;28;20960;-69
2023/06/08 12:43:30;;;;;;;14.27;7.28;;;;;19.10;96203.00;;;;8274840;28;20619;-71
2023/06/08 12:47:33;;;;;;;15.05;8.10;;;;;18.70;96188.00;;;;8281800;28;20202;-71
2023/06/08 12:51:45;;;;;;;19.60;9.18;;;;;18.50;96182.00;;;;8272795;28;20312;-69
2023/06/08 12:55:52;;;;;;;19.23;10.07;;;;;18.40;96180.00;;;;8276412;28;20293;-69
2023/06/08 12:59:58;;;;;;;15.40;8.93;;;;;18.50;96179.00;;;;8278290;28;20282;-71
2023/06/08 13:04:03;;;;;;;14.68;8.93;;;;;18.70;96181.00;;;;8274291;28;20580;-70
2023/06/08 13:08:09;;;;;;;14.80;8.63;;;;;19.00;96160.00;;;;8273773;28;20199;-69
2023/06/08 13:12:18;;;;;;;12.07;8.82;;;;;19.40;96156.00;;;;8276798;28;20226;-70
2023/06/08 13:16:25;;;;;;;13.52;8.75;;;;;20.50;96151.00;;;;8280307;28;20201;-71
2023/06/08 13:20:28;;;;;;;11.65;7.63;;;;;22.00;96145.00;;;;8272242;28;20199;-72
2023/06/08 13:24:31;;;;;;;10.25;6.93;;;;;22.90;96146.00;;;;8274927;28;20300;-78
2023/06/08 13:28:38;;;;;;;8.68;5.85;;;;;23.80;96137.00;;;;8279029;28;20209;-84
2023/06/08 13:32:41;;;;;;;8.15;6.20;;;;;24.40;96137.00;;;;8275959;28;20422;-84
2023/06/08 13:36:47;;;;;;;7.13;6.38;;;;;25.10;96120.00;;;;8278612;28;20361;-82
2023/06/08 13:40:51;;;;;;;9.07;7.07;;;;;25.70;96126.00;;;;8271547;28;20614;-84
2023/06/08 13:44:56;;;;;;;7.40;6.70;;;;;26.20;96114.00;;;;8289957;28;20652;-80
2023/06/08 13:48:59;;;;;;;9.20;6.40;;;;;26.30;96111.00;;;;8274070;28;20320;-75
2023/06/08 13:53:05;;;;;;;7.13;6.40;;;;;26.40;96107.00;;;;8271925;28;20226;-78
2023/06/08 13:57:10;;;;;;;6.72;6.03;;;;;26.50;96094.00;;;;8278288;28;20206;-73
2023/06/08 14:01:20;;;;;;;6.97;6.30;;;;;26.60;96086.00;;;;8269351;28;20298;-76
2023/06/08 14:05:35;;;;;;;7.68;6.22;;;;;26.80;96077.00;;;;8271857;28;20576;-78
2023/06/08 14:09:39;;;;;;;8.82;6.78;;;;;27.10;96069.00;;;;8269264;28;20312;-77
2023/06/08 14:13:42;;;;;;;7.93;7.05;;;;;27.20;96068.00;;;;8274460;28;20209;-72
2023/06/08 14:17:48;;;;;;;9.15;7.18;;;;;27.30;96078.00;;;;8281367;28;20265;-75
2023/06/08 14:21:51;;;;;;;10.35;7.32;;;;;27.70;96088.00;;;;8276683;28;20246;-75
2023/06/08 14:25:57;;;;;;;9.38;7.22;;;;;28.20;96078.00;;;;8284490;28;20203;-74
2023/06/08 14:30:00;;;;;;;8.93;7.05;;;;;28.40;96085.00;;;;8271401;28;20250;-78
2023/06/08 14:34:05;;;;;;;8.70;6.28;;;;;28.90;96080.00;;;;8270120;28;20710;-73
2023/06/08 14:38:10;;;;;;;6.57;5.82;;;;;29.20;96091.00;;;;8271297;28;21045;-75
2023/06/08 14:42:14;;;;;;;6.00;5.18;;;;;29.70;96095.00;;;;8280652;28;20217;-74
2023/06/08 14:46:17;;;;;;;5.25;4.63;;;;;30.40;96095.00;;;;8266381;28;20305;-75
2023/06/08 14:50:22;;;;;;;5.47;4.32;;;;;30.70;96105.00;;;;8270768;28;20691;-76
2023/06/08 14:54:25;;;;;;;4.15;3.85;;;;;31.30;96103.00;;;;8277405;28;20253;-78
2023/06/08 14:58:30;;;;;;;6.60;4.05;;;;;32.00;96095.00;;;;8272147;28;20210;-78
2023/06/08 15:02:33;;;;;;;6.57;4.30;;;;;32.20;96109.00;;;;8277937;28;20301;-75
2023/06/08 15:06:39;;;;;;;7.85;4.30;;;;;32.10;96108.00;;;;8276157;28;20616;-78
2023/06/08 15:10:42;;;;;;;4.38;3.97;;;;;32.20;96114.00;;;;8272572;28;20312;-79
2023/06/08 15:14:48;;;;;;;6.85;4.20;;;;;31.80;96116.00;;;;8276973;28;20194;-80
2023/06/08 15:18:54;;;;;;;5.22;4.03;;;;;31.60;96113.00;;;;8282315;28;20233;-78
2023/06/08 15:23:08;;;;;;;4.43;4.07;;;;;31.60;96104.00;;;;8284812;28;20402;-75
2023/06/08 15:27:11;;;;;;;4.35;3.95;;;;;31.60;96097.00;;;;8282130;28;20850;-74
2023/06/08 15:31:16;;;;;;;4.88;4.20;;;;;31.50;96096.00;;;;8276788;28;20325;-79
2023/06/08 15:35:20;;;;;;;4.60;4.20;;;;;31.00;96094.00;;;;8284133;28;20197;-78
2023/06/08 15:39:25;;;;;;;7.85;4.47;;;;;30.40;96092.00;;;;8271427;28;20202;-73
2023/06/08 15:43:29;;;;;;;4.18;3.78;;;;;30.00;96085.00;;;;8281522;28;20305;-79
2023/06/08 15:47:35;;;;;;;4.30;4.00;;;;;30.10;96079.00;;;;8282480;28;20200;-82
2023/06/08 15:51:44;;;;;;;4.78;3.88;;;;;30.50;96071.00;;;;8280181;28;20264;-79
2023/06/08 15:55:54;;;;;;;6.05;3.90;;;;;31.10;96073.00;;;;8285570;28;20612;-75
2023/06/08 15:59:58;;;;;;;7.00;3.72;;;;;31.10;96061.00;;;;8275976;28;20289;-78
2023/06/08 16:04:01;;;;;;;4.63;3.83;;;;;31.10;96056.00;;;;8283613;28;20225;-81
2023/06/08 16:08:06;;;;;;;3.85;3.55;;;;;31.60;96048.00;;;;8283386;28;20229;-80
2023/06/08 16:12:12;;;;;;;6.50;4.13;;;;;32.20;96034.00;;;;8284289;28;20312;-80
2023/06/08 16:16:15;;;;;;;6.78;4.30;;;;;32.60;96037.00;;;;8278809;28;20230;-76
2023/06/08 16:20:20;;;;;;;4.75;4.25;;;;;32.80;96035.00;;;;8274872;28;20209;-75
2023/06/08 16:24:25;;;;;;;8.25;3.83;;;;;32.90;96034.00;;;;8280594;28;20321;-84
2023/06/08 16:28:31;;;;;;;5.10;4.68;;;;;33.00;96021.00;;;;8286092;28;20663;-74
2023/06/08 16:32:34;;;;;;;6.57;4.15;;;;;33.60;96021.00;;;;8272042;28;20572;-82
2023/06/08 16:36:38;;;;;;;4.70;4.30;;;;;34.30;96026.00;;;;8281956;28;20272;-75
2023/06/08 16:40:42;;;;;;;4.30;3.90;;;;;34.20;96027.00;;;;8286457;28;20214;-79
2023/06/08 16:44:47;;;;;;;5.30;4.00;;;;;33.70;96034.00;;;;8282905;28;20686;-81
2023/06/08 16:48:50;;;;;;;5.30;4.28;;;;;31.60;96038.00;;;;8281913;28;20225;-67
2023/06/08 16:52:53;;;;;;;20.75;6.13;;;;;28.30;96044.00;;;;8280540;28;20241;-74
2023/06/08 16:56:58;;;;;;;8.55;5.63;;;;;25.20;96045.00;;;;8275432;28;20209;-70
2023/06/08 17:01:06;;;;;;;6.18;5.18;;;;;23.50;96048.00;;;;8278830;28;20213;-71
2023/06/08 17:05:10;;;;;;;5.53;5.03;;;;;22.70;96038.00;;;;8275642;28;20280;-71
2023/06/08 17:09:16;;;;;;;7.53;5.20;;;;;22.40;96039.00;;;;8268797;28;20202;-71
2023/06/08 17:13:19;;;;;;;10.30;5.50;;;;;22.20;96045.00;;;;8272187;28;20599;-74
2023/06/08 17:17:25;;;;;;;6.85;5.40;;;;;22.10;96047.00;;;;8264610;28;20281;-69
2023/06/08 17:21:29;;;;;;;14.02;5.45;;;;;22.10;96045.00;;;;8266061;28;20537;-71
2023/06/08 17:25:32;;;;;;;6.18;5.03;;;;;22.20;96047.00;;;;8269699;28;21364;-73
2023/06/08 17:29:39;;;;;;;6.20;4.88;;;;;22.20;96054.00;;;;8272401;28;20652;-70
2023/06/08 17:33:46;;;;;;;4.60;4.10;;;;;22.30;96067.00;;;;8271265;28;20273;-71
2023/06/08 17:37:50;;;;;;;7.50;5.28;;;;;22.30;96082.00;;;;8271364;28;20558;-71
2023/06/08 17:41:54;;;;;;;6.10;4.60;;;;;22.30;96083.00;;;;8274535;28;20429;-70
2023/06/08 17:45:58;;;;;;;4.35;3.95;;;;;22.30;96083.00;;;;8269773;28;20787;-71
2023/06/08 17:50:12;;;;;;;6.28;4.15;;;;;22.40;96093.00;;;;8267537;28;20207;-70
2023/06/08 17:54:15;;;;;;;8.23;4.97;;;;;22.30;96099.00;;;;8273431;28;20320;-72
2023/06/08 17:58:29;;;;;;;12.02;5.60;;;;;22.10;96101.00;;;;8273580;28;20197;-71
2023/06/08 18:02:36;;;;;;;7.57;4.68;;;;;22.00;96100.00;;;;8266639;28;20221;-69
2023/06/08 18:06:46;;;;;;;5.15;4.32;;;;;21.90;96092.00;;;;8280841;28;20205;-71
2023/06/08 18:10:58;;;;;;;5.00;3.97;;;;;21.80;96097.00;;;;8273196;28;20218;-69
2023/06/08 18:15:02;;;;;;;4.95;4.43;;;;;21.80;96095.00;;;;8280038;28;20198;-69
2023/06/08 18:19:06;;;;;;;5.07;3.58;;;;;21.80;96082.00;;;;8279356;28;20217;-70
2023/06/08 18:23:12;;;;;;;5.88;4.05;;;;;21.70;96083.00;;;;8274328;28;20202;-72
2023/06/08 18:27:17;;;;;;;3.58;3.28;;;;;21.60;96083.00;;;;8277566;28;20198;-68
2023/06/08 18:31:25;;;;;;;3.78;3.47;;;;;21.50;96084.00;;;;8285351;28;21041;-67
2023/06/08 18:35:29;;;;;;;4.45;3.72;;;;;21.40;96089.00;;;;8272726;28;21626;-70
2023/06/08 18:39:39;;;;;;;5.97;3.50;;;;;21.30;96089.00;;;;8275232;28;20285;-69
2023/06/08 18:44:00;;;;;;;5.07;4.10;;;;;21.20;96104.00;;;;8266343;28;20197;-71
2023/06/08 18:48:03;;;;;;;4.53;3.72;;;;;21.10;96103.00;;;;8264795;28;20217;-68
2023/06/08 18:52:07;;;;;;;3.88;3.58;;;;;20.90;96095.00;;;;8278787;28;20267;-71
2023/06/08 18:56:12;;;;;;;4.30;3.90;;;;;20.70;96091.00;;;;8278487;28;20205;-71
2023/06/08 19:00:18;;;;;;;4.53;4.13;;;;;20.50;96099.00;;;;8269159;28;20755;-69
2023/06/08 19:04:27;;;;;;;6.72;4.35;;;;;20.40;96098.00;;;;8275786;28;20904;-70
2023/06/08 19:08:30;;;;;;;10.18;4.57;;;;;20.20;96103.00;;;;8268449;28;20199;-70
2023/06/08 19:12:35;;;;;;;4.75;4.25;;;;;20.00;96106.00;;;;8273754;28;20229;-68
2023/06/08 19:16:38;;;;;;;4.88;4.38;;;;;19.90;96101.00;;;;8275545;28;20198;-68
2023/06/08 19:20:43;;;;;;;5.15;4.53;;;;;19.80;96104.00;;;;8276943;28;20633;-67
2023/06/08 19:24:46;;;;;;;6.18;4.10;;;;;19.70;96109.00;;;;8281991;28;20614;-67
2023/06/08 19:28:59;;;;;;;7.28;4.00;;;;;19.40;96113.00;;;;8288438;28;20655;-70
2023/06/08 19:33:03;;;;;;;7.53;4.57;;;;;19.20;96120.00;;;;8278458;28;20268;-70
2023/06/08 19:37:08;;;;;;;6.13;4.25;;;;;19.10;96122.00;;;;8277337;28;20210;-67
2023/06/08 19:41:13;;;;;;;7.38;4.43;;;;;19.00;96120.00;;;;8280663;28;20223;-68
2023/06/08 19:45:18;;;;;;;4.63;3.60;;;;;19.00;96126.00;;;;8276928;28;20207;-69
2023/06/08 19:49:22;;;;;;;4.40;3.83;;;;;18.90;96129.00;;;;8280396;28;20206;-68
2023/06/08 19:53:25;;;;;;;5.05;4.47;;;;;18.80;96139.00;;;;8279797;28;20222;-68
2023/06/08 19:57:29;;;;;;;4.82;4.32;;;;;18.60;96136.00;;;;8283007;28;20214;-67
2023/06/08 20:01:33;;;;;;;4.28;3.65;;;;;18.30;96135.00;;;;8270899;28;20297;-67
2023/06/08 20:05:38;;;;;;;3.78;3.40;;;;;18.30;96134.00;;;;8282181;28;20983;-68
2023/06/08 20:09:45;;;;;;;5.38;3.97;;;;;18.40;96145.00;;;;8281442;28;20213;-68
2023/06/08 20:13:51;;;;;;;4.75;4.30;;;;;18.50;96158.00;;;;8286243;28;20237;-65
2023/06/08 20:17:57;;;;;;;4.50;4.10;;;;;18.50;96161.00;;;;8282490;28;20619;-70
2023/06/08 20:22:00;;;;;;;4.57;4.18;;;;;18.50;96154.00;;;;8284881;28;20734;-68
2023/06/08 20:26:07;;;;;;;8.77;4.00;;;;;18.50;96160.00;;;;8282480;28;20878;-68
2023/06/08 20:30:12;;;;;;;6.38;4.60;;;;;18.30;96165.00;;;;8284669;28;20709;-69
2023/06/08 20:34:18;;;;;;;6.50;4.50;;;;;18.30;96164.00;;;;8285554;28;20301;-68
2023/06/08 20:38:25;;;;;;;8.77;4.45;;;;;18.20;96168.00;;;;8286750;28;20208;-70
2023/06/08 20:42:35;;;;;;;4.82;4.32;;;;;18.10;96176.00;;;;8285618;28;20206;-69
2023/06/08 20:46:40;;;;;;;5.63;4.13;;;;;18.00;96168.00;;;;8281936;28;20203;-67
2023/06/08 20:50:47;;;;;;;4.47;4.07;;;;;18.00;96165.00;;;;8281483;28;20325;-69
2023/06/08 20:54:53;;;;;;;6.78;4.47;;;;;18.00;96158.00;;;;8285791;28;20248;-68